Pilot Boat 53 — SY3201 — position and weather

sailwx.info

Track history (hours):
 
Tides and Currents Weather Stations Pressure Air Temp Water Temp Dewpoint Dewpoint Depression Visibility Wind Speed Wind Dir Waves Ship Positions

Pilot Boat 53

Last reported at 2017-Nov-17 11:07 UTC. Time now 2017-Nov-19 05:00 UTC.
Position N 37°57' E 023°36'.

Length 14 m.

MMSI: 237710200.

Date/timePositionNaut miles runAvg speedWind from/ knotsBaromVisibWave heightAir tempDewpointWater temp
2017-Nov-17 11:07N 37°57' E 023°36'213.1
2017-Nov-17 11:00N 37°56' E 023°37'1 1.6
2017-Nov-17 10:30N 37°56' E 023°36'0 0.4
2017-Nov-17 10:00N 37°57' E 023°36'1 1.8
2017-Nov-17 09:28N 37°56' E 023°38'0 0.0
2017-Nov-17 09:00N 37°56' E 023°38'1 1.6
2017-Nov-17 08:30N 37°56' E 023°37'0 0.6
2017-Nov-17 08:00N 37°56' E 023°37'0 0.6
2017-Nov-17 07:30N 37°56' E 023°37'1 2.5
2017-Nov-17 07:00N 37°57' E 023°35'2 2.6
2017-Nov-17 06:20N 37°55' E 023°36'1 4.4
2017-Nov-17 06:00N 37°57' E 023°36'0 0.7
2017-Nov-17 05:25N 37°57' E 023°35'1 2.6
2017-Nov-17 05:00N 37°56' E 023°37'1 1.5
2017-Nov-17 04:30N 37°56' E 023°38'0 0.0
2017-Nov-17 04:00N 37°56' E 023°38'0 0.0
2017-Nov-17 03:30N 37°56' E 023°38'0 0.0
2017-Nov-17 03:00N 37°56' E 023°38'0 0.0
2017-Nov-17 02:30N 37°56' E 023°38'0 0.0
2017-Nov-17 02:00N 37°56' E 023°38'0 0.0
2017-Nov-17 01:30N 37°56' E 023°38'0 0.0
2017-Nov-17 01:00N 37°56' E 023°38'0 0.0
2017-Nov-17 00:30N 37°56' E 023°38'0 0.0
2017-Nov-17 00:00N 37°56' E 023°38'0 0.0
2017-Nov-16 23:30N 37°56' E 023°38'0 0.0
2017-Nov-16 23:00N 37°56' E 023°38'0 0.0
2017-Nov-16 22:30N 37°56' E 023°38'0 0.0
2017-Nov-16 22:00N 37°56' E 023°38'0 0.0
2017-Nov-16 21:30N 37°56' E 023°38'0 0.0
2017-Nov-16 21:00N 37°56' E 023°38'0 0.0
2017-Nov-16 20:30N 37°56' E 023°38'0 0.0
2017-Nov-16 20:00N 37°56' E 023°38'0 0.0
2017-Nov-16 19:30N 37°56' E 023°38'0 0.0
2017-Nov-16 19:00N 37°56' E 023°38'0 0.0
2017-Nov-16 18:30N 37°56' E 023°38'2 2.4
2017-Nov-16 17:44N 37°57' E 023°35'2 7.7
2017-Nov-16 17:29N 37°55' E 023°37'2 4.1
2017-Nov-16 16:57N 37°57' E 023°35'1 2.2
2017-Nov-16 16:30N 37°57' E 023°36'1 1.9
2017-Nov-16 16:00N 37°56' E 023°37'2 3.3
2017-Nov-16 15:20N 37°57' E 023°35'1 3.8
2017-Nov-16 15:00N 37°57' E 023°36'2 2.7
2017-Nov-16 14:24N 37°55' E 023°35'2 5.0
2017-Nov-16 14:00N 37°56' E 023°38'2 2.9
2017-Nov-16 13:25N 37°57' E 023°36'1 2.7
2017-Nov-16 13:00N 37°56' E 023°35'1 1.6
2017-Nov-16 12:30N 37°56' E 023°36'1 1.6
2017-Nov-16 12:00N 37°57' E 023°36'1 2.4
2017-Nov-16 11:30N 37°56' E 023°37'1 1.9
2017-Nov-16 10:55N 37°55' E 023°36'2 4.3
2017-Nov-16 10:30N 37°56' E 023°38'1 1.7
2017-Nov-16 09:40N 37°57' E 023°36'1 8.2
2017-Nov-16 09:29N 37°56' E 023°38'1 1.6
2017-Nov-16 09:00N 37°56' E 023°37'1 1.6
2017-Nov-16 08:29N 37°56' E 023°38'0 0.0
2017-Nov-16 07:53N 37°56' E 023°38'1 3.6
2017-Nov-16 07:30N 37°57' E 023°36'2 3.5
2017-Nov-16 06:58N 37°55' E 023°36'2 3.6
2017-Nov-16 06:30N 37°57' E 023°36'1 1.7
2017-Nov-16 06:00N 37°56' E 023°36'1 1.5
2017-Nov-16 05:30N 37°56' E 023°37'0 0.9
2017-Nov-16 05:00N 37°56' E 023°37'1 1.5
2017-Nov-16 04:30N 37°56' E 023°38'0 0.0
2017-Nov-16 03:58N 37°56' E 023°38'0 0.0
2017-Nov-16 03:28N 37°56' E 023°38'0 0.0
2017-Nov-16 02:58N 37°56' E 023°38'0 0.0
2017-Nov-16 02:28N 37°56' E 023°38'0 0.0
2017-Nov-16 01:55N 37°56' E 023°38'0 0.0
2017-Nov-16 01:28N 37°56' E 023°38'0 0.0
2017-Nov-16 00:58N 37°56' E 023°38'0 0.0
2017-Nov-16 00:25N 37°56' E 023°38'0 0.0
2017-Nov-15 23:58N 37°56' E 023°38'0 0.0
2017-Nov-15 23:28N 37°56' E 023°38'0 0.0
2017-Nov-15 22:58N 37°56' E 023°38'1 2.6
2017-Nov-15 22:24N 37°57' E 023°36'1 3.4
2017-Nov-15 22:00N 37°56' E 023°37'2 3.1
2017-Nov-15 21:27N 37°57' E 023°36'2 4.5
2017-Nov-15 21:00N 37°55' E 023°37'1 1.9
2017-Nov-15 20:29N 37°56' E 023°38'0 0.0
2017-Nov-15 19:59N 37°56' E 023°38'0 0.0
2017-Nov-15 19:29N 37°56' E 023°38'0 0.9
2017-Nov-15 19:00N 37°56' E 023°37'2 3.0
2017-Nov-15 18:27N 37°57' E 023°35'2 5.3
2017-Nov-15 18:00N 37°55' E 023°36'2 1.6
2017-Nov-15 16:59N 37°56' E 023°38'1 3.0
2017-Nov-15 16:30N 37°56' E 023°36'1 0.7
2017-Nov-15 14:30N 37°56' E 023°38'0 0.1
2017-Nov-15 14:00N 37°56' E 023°38'0 0.0
2017-Nov-15 13:30N 37°56' E 023°38'2 3.1
2017-Nov-15 13:00N 37°56' E 023°36'1 2.4
2017-Nov-15 12:30N 37°56' E 023°37'0 0.8
2017-Nov-15 11:56N 37°56' E 023°38'0 0.9
2017-Nov-15 11:30N 37°56' E 023°37'1 2.2
2017-Nov-15 11:00N 37°57' E 023°36'1 0.4
2017-Nov-15 09:41N 37°57' E 023°35'1 3.9
2017-Nov-15 09:30N 37°56' E 023°36'1 2.4
2017-Nov-15 09:00N 37°56' E 023°38'3 4.9
2017-Nov-15 08:29N 37°57' E 023°35'1 2.1
2017-Nov-15 08:00N 37°57' E 023°36'0 1.0
2017-Nov-15 07:30N 37°57' E 023°35'2 4.1
2017-Nov-15 07:00N 37°56' E 023°38'2 2.4
2017-Nov-15 06:21N 37°56' E 023°36'2 4.3
2017-Nov-15 06:00N 37°56' E 023°38'2 4.2
2017-Nov-15 05:29N 37°57' E 023°35'1 0.8
2017-Nov-15 04:42N 37°57' E 023°36'0 1.4
2017-Nov-15 04:30N 37°57' E 023°36'1 2.7
2017-Nov-15 03:58N 37°56' E 023°38'0 0.0
2017-Nov-15 03:28N 37°56' E 023°38'0 0.0
2017-Nov-15 02:58N 37°56' E 023°38'0 0.0
2017-Nov-15 02:28N 37°56' E 023°38'0 0.0
2017-Nov-15 01:59N 37°56' E 023°38'0 0.0
2017-Nov-15 01:29N 37°56' E 023°38'0 0.0
2017-Nov-15 00:59N 37°56' E 023°38'0 0.0
2017-Nov-15 00:30N 37°56' E 023°38'2 2.5
2017-Nov-14 23:54N 37°57' E 023°36'0 1.0
2017-Nov-14 23:30N 37°57' E 023°36'0 0.7
2017-Nov-14 22:57N 37°57' E 023°36'0 0.4
2017-Nov-14 22:30N 37°57' E 023°36'1 2.0
2017-Nov-14 22:00N 37°56' E 023°37'1 1.0
2017-Nov-14 21:29N 37°56' E 023°38'1 2.8
2017-Nov-14 20:57N 37°57' E 023°36'0 0.9
2017-Nov-14 20:30N 37°57' E 023°36'1 1.1
2017-Nov-14 19:54N 37°57' E 023°35'2 5.4
2017-Nov-14 19:29N 37°56' E 023°38'1 1.7
2017-Nov-14 18:59N 37°57' E 023°37'1 0.9
2017-Nov-14 18:07N 37°57' E 023°36'2 4.9
2017-Nov-14 17:48N 37°56' E 023°35'1 4.4
2017-Nov-14 17:31N 37°57' E 023°36'1 1.4
2017-Nov-14 17:00N 37°57' E 023°35'2 3.5
2017-Nov-14 16:28N 37°56' E 023°38'1 1.9
2017-Nov-14 16:00N 37°56' E 023°36'1 0.8
2017-Nov-14 15:14N 37°57' E 023°36'1 5.5
2017-Nov-14 14:58N 37°56' E 023°38'0 0.8
2017-Nov-14 14:30N 37°56' E 023°37'1 1.7
2017-Nov-14 13:44N 37°57' E 023°36'2 6.4
2017-Nov-14 13:30N 37°56' E 023°38'2 2.9
2017-Nov-14 12:58N 37°57' E 023°36'0 0.3
2017-Nov-14 12:29N 37°57' E 023°36'1 2.4
2017-Nov-14 12:00N 37°56' E 023°37'0 0.6
2017-Nov-14 11:28N 37°56' E 023°38'2 2.8
2017-Nov-14 10:51N 37°57' E 023°36'2 4.9
2017-Nov-14 10:30N 37°56' E 023°38'1 3.0
2017-Nov-14 10:00N 37°57' E 023°36'1 2.8
2017-Nov-14 09:28N 37°56' E 023°38'1 1.6
2017-Nov-14 09:00N 37°56' E 023°37'1 1.5
2017-Nov-14 08:29N 37°56' E 023°38'0 0.0
2017-Nov-14 07:59N 37°56' E 023°38'1 3.1
2017-Nov-14 07:30N 37°56' E 023°36'1 1.4
2017-Nov-14 06:56N 37°55' E 023°36'2 3.8
2017-Nov-14 06:27N 37°57' E 023°36'1 2.9
2017-Nov-14 06:00N 37°56' E 023°37'1 2.0
2017-Nov-14 05:30N 37°55' E 023°36'1 2.3
2017-Nov-14 05:00N 37°56' E 023°37'0 0.4
2017-Nov-14 04:29N 37°56' E 023°38'0 0.1
2017-Nov-14 03:59N 37°56' E 023°38'0 0.0
2017-Nov-14 03:29N 37°56' E 023°38'0 0.0
2017-Nov-14 02:59N 37°56' E 023°38'0 0.0
2017-Nov-14 02:29N 37°56' E 023°38'0 0.0
2017-Nov-14 01:56N 37°56' E 023°38'0 0.0
2017-Nov-14 01:26N 37°56' E 023°38'2 3.8
2017-Nov-14 00:51N 37°57' E 023°35'2 5.2
2017-Nov-14 00:26N 37°56' E 023°38'0 0.0
2017-Nov-13 23:59N 37°56' E 023°38'0 0.0
2017-Nov-13 23:29N 37°56' E 023°38'0 0.0
2017-Nov-13 22:59N 37°56' E 023°38'0 0.4
2017-Nov-13 22:30N 37°56' E 023°37'0 0.3
2017-Nov-13 22:00N 37°56' E 023°38'0 0.0
2017-Nov-13 01:58N 37°56' E 023°38'0 0.0
2017-Nov-13 01:28N 37°56' E 023°38'0 0.0
2017-Nov-13 00:58N 37°56' E 023°38'0 0.0
2017-Nov-13 00:28N 37°56' E 023°38'0 0.0
2017-Nov-12 23:58N 37°56' E 023°38'0 0.0
2017-Nov-12 23:28N 37°56' E 023°38'0 0.0
2017-Nov-12 22:58N 37°56' E 023°38'0 0.0
2017-Nov-12 22:28N 37°56' E 023°38'0 0.0
2017-Nov-12 21:58N 37°56' E 023°38'2 3.3
2017-Nov-12 21:19N 37°57' E 023°35'0 0.4
2017-Nov-12 20:21N 37°57' E 023°35'2 5.3
2017-Nov-12 19:58N 37°56' E 023°38'0 0.0
2017-Nov-12 19:28N 37°56' E 023°38'0 0.0
2017-Nov-12 18:58N 37°56' E 023°38'0 0.0
2017-Nov-12 18:28N 37°56' E 023°38'0 0.0
2017-Nov-12 17:58N 37°56' E 023°38'2 3.6
2017-Nov-12 17:30N 37°57' E 023°36'2 3.3
2017-Nov-12 17:00N 37°56' E 023°38'0 0.0
2017-Nov-12 16:30N 37°56' E 023°38'0 0.0
2017-Nov-12 15:59N 37°56' E 023°38'0 0.0
2017-Nov-12 15:29N 37°56' E 023°38'0 0.0
2017-Nov-12 14:59N 37°56' E 023°38'0 0.0
2017-Nov-12 14:28N 37°56' E 023°38'0 0.0
2017-Nov-12 13:59N 37°56' E 023°38'0 0.0
2017-Nov-12 13:29N 37°56' E 023°38'1 1.1
2017-Nov-12 13:01N 37°56' E 023°37'0 0.9
2017-Nov-12 12:31N 37°57' E 023°36'1 2.7
2017-Nov-12 11:59N 37°55' E 023°36'2 3.1
2017-Nov-12 11:28N 37°57' E 023°36'1 3.2
2017-Nov-12 11:00N 37°56' E 023°38'0 0.0
2017-Nov-12 10:30N 37°56' E 023°38'0 0.1
2017-Nov-12 10:00N 37°56' E 023°38'0 0.2
2017-Nov-12 09:27N 37°56' E 023°38'1 3.3
2017-Nov-12 09:00N 37°57' E 023°36'1 2.6
2017-Nov-12 08:30N 37°56' E 023°37'1 2.3
2017-Nov-12 07:59N 37°57' E 023°36'0 0.8
2017-Nov-12 07:26N 37°57' E 023°36'1 1.6
2017-Nov-12 07:00N 37°56' E 023°36'1 1.1
2017-Nov-12 06:30N 37°57' E 023°36'0 0.2
2017-Nov-12 05:52N 37°57' E 023°36'0 0.6
2017-Nov-12 05:29N 37°57' E 023°36'2 3.5
2017-Nov-12 04:57N 37°55' E 023°36'2 4.3
2017-Nov-12 04:30N 37°57' E 023°36'1 2.2
2017-Nov-12 03:56N 37°56' E 023°38'0 0.0
2017-Nov-12 03:29N 37°56' E 023°38'0 0.0
2017-Nov-12 02:59N 37°56' E 023°38'0 0.0
2017-Nov-12 02:29N 37°56' E 023°38'0 0.0
2017-Nov-12 01:59N 37°56' E 023°38'0 0.0
2017-Nov-12 01:29N 37°56' E 023°38'0 0.0
2017-Nov-12 00:59N 37°56' E 023°38'0 0.0
2017-Nov-12 00:29N 37°56' E 023°38'0 0.0
2017-Nov-11 23:59N 37°56' E 023°38'0 0.0
2017-Nov-11 23:29N 37°56' E 023°38'0 0.0
2017-Nov-11 22:59N 37°56' E 023°38'0 0.0
2017-Nov-11 22:29N 37°56' E 023°38'2 4.0
2017-Nov-11 22:00N 37°57' E 023°35'2 3.6
2017-Nov-11 21:30N 37°56' E 023°37'2 4.3
2017-Nov-11 20:59N 37°55' E 023°35'2 4.2
2017-Nov-11 20:27N 37°57' E 023°36'0 0.2
2017-Nov-11 20:00N 37°57' E 023°36'1 2.9
2017-Nov-11 19:30N 37°56' E 023°37'1 1.6
2017-Nov-11 18:58N 37°56' E 023°38'0 0.0
2017-Nov-11 18:29N 37°56' E 023°38'0 0.0
2017-Nov-11 17:56N 37°56' E 023°38'0 0.0
2017-Nov-11 17:29N 37°56' E 023°38'2 3.2
2017-Nov-11 16:59N 37°57' E 023°36'2 2.7
2017-Nov-11 16:24N 37°56' E 023°38'2 4.8
2017-Nov-11 16:00N 37°57' E 023°35'0 0.2
2017-Nov-11 15:28N 37°57' E 023°35'2 4.0
2017-Nov-11 15:00N 37°56' E 023°37'1 2.1
2017-Nov-11 14:18N 37°55' E 023°36'2 5.6
2017-Nov-11 14:00N 37°56' E 023°38'0 0.0
2017-Nov-11 13:30N 37°56' E 023°38'1 2.2
2017-Nov-11 12:59N 37°57' E 023°36'1 2.4
2017-Nov-11 12:30N 37°56' E 023°38'1 2.8
2017-Nov-11 12:00N 37°57' E 023°36'0 0.9
2017-Nov-11 11:30N 37°57' E 023°36'1 2.3
2017-Nov-11 11:00N 37°56' E 023°37'1 1.8
2017-Nov-11 10:29N 37°56' E 023°38'1 1.8
2017-Nov-11 10:00N 37°56' E 023°37'1 1.1
2017-Nov-11 09:30N 37°56' E 023°37'0 0.9
2017-Nov-11 09:00N 37°56' E 023°38'0 0.0
2017-Nov-11 08:30N 37°56' E 023°38'0 0.0
2017-Nov-11 08:00N 37°56' E 023°38'1 1.6
2017-Nov-11 07:28N 37°57' E 023°37'1 1.1
2017-Nov-11 07:00N 37°57' E 023°36'1 2.7
2017-Nov-11 06:30N 37°56' E 023°38'1 1.9
2017-Nov-11 06:00N 37°56' E 023°37'1 1.8
2017-Nov-11 05:29N 37°56' E 023°38'1 2.8
2017-Nov-11 05:00N 37°56' E 023°36'1 1.7
2017-Nov-11 04:30N 37°57' E 023°36'1 1.7
2017-Nov-11 03:58N 37°56' E 023°38'0 0.0
2017-Nov-11 03:25N 37°56' E 023°38'0 0.0
2017-Nov-11 02:58N 37°56' E 023°38'0 0.0
2017-Nov-11 02:28N 37°56' E 023°38'0 0.0
2017-Nov-11 01:55N 37°56' E 023°38'0 0.0
2017-Nov-11 01:28N 37°56' E 023°38'0 0.0
2017-Nov-11 00:58N 37°56' E 023°38'0 0.0
2017-Nov-11 00:28N 37°56' E 023°38'0 0.0
2017-Nov-10 23:58N 37°56' E 023°38'1 2.9
2017-Nov-10 23:30N 37°57' E 023°36'1 2.0
2017-Nov-10 23:00N 37°56' E 023°37'1 1.6
2017-Nov-10 22:21N 37°56' E 023°36'1 2.9
2017-Nov-10 21:59N 37°57' E 023°36'0 0.9
2017-Nov-10 21:30N 37°56' E 023°36'1 2.2
2017-Nov-10 20:59N 37°57' E 023°35'2 3.8
2017-Nov-10 20:30N 37°56' E 023°37'1 1.8
2017-Nov-10 20:00N 37°56' E 023°38'1 3.0
2017-Nov-10 19:30N 37°57' E 023°36'1 2.8
2017-Nov-10 19:00N 37°56' E 023°38'1 1.1
2017-Nov-10 17:53N 37°57' E 023°36'1 3.3
2017-Nov-10 17:30N 37°56' E 023°38'0 0.0
2017-Nov-10 17:00N 37°56' E 023°38'1 1.7
2017-Nov-10 16:27N 37°57' E 023°37'1 1.2
2017-Nov-10 15:57N 37°57' E 023°36'1 2.0
2017-Nov-10 15:30N 37°57' E 023°37'1 1.4
2017-Nov-10 15:00N 37°56' E 023°38'0 0.0
2017-Nov-10 14:30N 37°56' E 023°38'0 0.0
2017-Nov-10 14:00N 37°56' E 023°38'1 1.6
2017-Nov-10 13:30N 37°56' E 023°37'1 1.6
2017-Nov-10 13:00N 37°56' E 023°38'0 0.0
2017-Nov-10 12:30N 37°56' E 023°38'0 0.1
2017-Nov-10 12:00N 37°56' E 023°37'0 0.4
2017-Nov-10 11:30N 37°56' E 023°38'1 2.8
2017-Nov-10 11:00N 37°57' E 023°36'1 1.4
2017-Nov-10 10:29N 37°57' E 023°37'1 1.5
2017-Nov-10 10:00N 37°56' E 023°38'1 1.6
2017-Nov-10 09:30N 37°56' E 023°37'0 0.6
2017-Nov-10 09:00N 37°57' E 023°37'1 1.6
2017-Nov-10 08:30N 37°56' E 023°38'1 1.7
2017-Nov-10 08:00N 37°57' E 023°37'1 1.7
2017-Nov-10 07:30N 37°56' E 023°38'0 0.3
2017-Nov-10 07:00N 37°56' E 023°37'0 0.4
2017-Nov-10 06:31N 37°56' E 023°38'2 3.2
2017-Nov-10 06:00N 37°57' E 023°36'1 1.4
2017-Nov-10 05:30N 37°57' E 023°35'2 3.1
2017-Nov-10 04:48N 37°55' E 023°35'2 8.1
2017-Nov-10 04:30N 37°56' E 023°38'0 0.0
2017-Nov-10 03:59N 37°56' E 023°38'0 0.0
2017-Nov-10 03:26N 37°56' E 023°38'0 0.0
2017-Nov-10 02:59N 37°56' E 023°38'0 0.0
2017-Nov-10 02:26N 37°56' E 023°38'0 0.0
2017-Nov-10 01:50N 37°56' E 023°38'0 0.0
2017-Nov-10 01:29N 37°56' E 023°38'0 0.0
2017-Nov-10 00:59N 37°56' E 023°38'1 1.2
2017-Nov-10 00:30N 37°56' E 023°37'1 1.1
2017-Nov-10 00:00N 37°56' E 023°38'0 0.0
2017-Nov-09 23:30N 37°56' E 023°38'0 0.0
2017-Nov-09 23:00N 37°56' E 023°38'0 0.0
2017-Nov-09 22:30N 37°56' E 023°38'1 2.7
2017-Nov-09 22:00N 37°57' E 023°36'1 2.6
2017-Nov-09 21:30N 37°55' E 023°36'1 2.4
2017-Nov-09 20:55N 37°56' E 023°38'0 0.0
2017-Nov-09 20:25N 37°56' E 023°38'2 3.0
2017-Nov-09 19:53N 37°57' E 023°36'1 3.3
2017-Nov-09 19:30N 37°56' E 023°37'1 2.2
2017-Nov-09 18:53N 37°57' E 023°36'2 4.5
2017-Nov-09 18:30N 37°56' E 023°37'2 2.7
2017-Nov-09 17:56N 37°57' E 023°36'0 0.6
2017-Nov-09 17:27N 37°57' E 023°36'0 0.3
2017-Nov-09 17:00N 37°57' E 023°36'0 0.2
2017-Nov-09 16:26N 37°57' E 023°36'2 4.2
2017-Nov-09 15:59N 37°55' E 023°36'1 1.4
2017-Nov-09 15:29N 37°56' E 023°36'1 2.6
2017-Nov-09 15:00N 37°56' E 023°38'0 0.5
2017-Nov-09 14:30N 37°56' E 023°38'0 0.0
2017-Nov-09 13:57N 37°56' E 023°38'2 3.5
2017-Nov-09 13:29N 37°57' E 023°36'1 1.5
2017-Nov-09 13:00N 37°56' E 023°36'0 0.4
2017-Nov-09 12:15N 37°56' E 023°36'1 3.1
2017-Nov-09 11:59N 37°56' E 023°37'1 1.3
2017-Nov-09 11:30N 37°56' E 023°38'2 2.1
2017-Nov-09 10:46N 37°57' E 023°36'2 5.5
2017-Nov-09 10:29N 37°56' E 023°38'0 0.0
2017-Nov-09 10:00N 37°56' E 023°38'1 2.2
2017-Nov-09 09:22N 37°55' E 023°36'2 5.0
2017-Nov-09 08:57N 37°57' E 023°35'0 0.8
2017-Nov-09 08:29N 37°57' E 023°35'2 4.9
2017-Nov-09 08:00N 37°56' E 023°38'2 2.4
2017-Nov-09 07:10N 37°57' E 023°35'1 3.2
2017-Nov-09 07:00N 37°57' E 023°36'1 2.5
2017-Nov-09 06:30N 37°56' E 023°35'2 3.1
2017-Nov-09 06:00N 37°57' E 023°36'2 3.9
2017-Nov-09 05:30N 37°56' E 023°37'1 2.2
2017-Nov-09 05:00N 37°56' E 023°36'1 1.2
2017-Nov-09 04:27N 37°57' E 023°36'1 2.6
2017-Nov-09 03:55N 37°56' E 023°38'0 0.0
2017-Nov-09 03:28N 37°56' E 023°38'0 0.0
2017-Nov-09 02:58N 37°56' E 023°38'0 0.0
2017-Nov-09 02:28N 37°56' E 023°38'0 0.0
2017-Nov-09 02:00N 37°56' E 023°38'2 4.6
2017-Nov-09 01:30N 37°57' E 023°35'2 4.4
2017-Nov-09 00:58N 37°56' E 023°38'0 0.0
2017-Nov-09 00:28N 37°56' E 023°38'0 0.0
2017-Nov-08 23:58N 37°56' E 023°38'0 0.0
2017-Nov-08 23:28N 37°56' E 023°38'0 0.0
2017-Nov-08 22:58N 37°56' E 023°38'0 0.0
2017-Nov-08 22:28N 37°56' E 023°38'0 0.0
2017-Nov-08 21:56N 37°56' E 023°38'2 3.6
2017-Nov-08 21:20N 37°57' E 023°35'1 0.5
2017-Nov-08 20:08N 37°57' E 023°36'111.6
2017-Nov-08 20:00N 37°56' E 023°37'0 0.2
2017-Nov-08 19:29N 37°56' E 023°38'1 2.3
2017-Nov-08 19:00N 37°57' E 023°36'0 0.2
2017-Nov-08 18:30N 37°57' E 023°36'1 1.9
2017-Nov-08 17:58N 37°56' E 023°38'0 0.0
2017-Nov-08 17:28N 37°56' E 023°38'2 3.7
2017-Nov-08 16:59N 37°57' E 023°36'2 3.5
2017-Nov-08 16:29N 37°56' E 023°38'0 0.0
2017-Nov-08 15:59N 37°56' E 023°38'1 1.9
2017-Nov-08 15:30N 37°56' E 023°37'1 1.8
2017-Nov-08 15:00N 37°56' E 023°38'1 1.2
2017-Nov-08 14:16N 37°56' E 023°37'1 3.0
2017-Nov-08 13:49N 37°57' E 023°36'2 4.2
2017-Nov-08 13:27N 37°56' E 023°38'1 2.6
2017-Nov-08 13:00N 37°56' E 023°36'1 2.0
2017-Nov-08 12:20N 37°57' E 023°36'0 0.1
2017-Nov-08 11:38N 37°57' E 023°36'2 8.1
2017-Nov-08 11:25N 37°55' E 023°37'2 3.9
2017-Nov-08 11:00N 37°57' E 023°36'1 1.6
2017-Nov-08 10:25N 37°56' E 023°36'1 3.2
2017-Nov-08 10:01N 37°56' E 023°38'2 3.7
2017-Nov-08 09:24N 37°55' E 023°35'2 4.1
2017-Nov-08 08:58N 37°57' E 023°35'2 3.9
2017-Nov-08 08:29N 37°56' E 023°38'2 3.3
2017-Nov-08 07:56N 37°55' E 023°36'2 3.9
2017-Nov-08 07:29N 37°56' E 023°38'0 0.0
2017-Nov-08 06:59N 37°56' E 023°38'1 2.9
2017-Nov-08 06:30N 37°57' E 023°36'2 2.1
2017-Nov-08 05:43N 37°55' E 023°35'2 9.1
2017-Nov-08 05:30N 37°57' E 023°36'2 3.7
2017-Nov-08 04:50N 37°55' E 023°36'2 5.0
2017-Nov-08 04:26N 37°56' E 023°38'0 0.0
2017-Nov-08 03:56N 37°56' E 023°38'0 0.0
2017-Nov-08 03:26N 37°56' E 023°38'0 0.0
2017-Nov-08 02:59N 37°56' E 023°38'0 0.0
2017-Nov-08 02:29N 37°56' E 023°38'0 0.0
2017-Nov-08 01:59N 37°56' E 023°38'0 0.0
2017-Nov-08 01:26N 37°56' E 023°38'0 0.0
2017-Nov-08 00:59N 37°56' E 023°38'0 0.0
2017-Nov-08 00:29N 37°56' E 023°38'0 0.9
2017-Nov-08 00:00N 37°56' E 023°37'0 0.8
2017-Nov-07 23:28N 37°56' E 023°38'0 0.0
2017-Nov-07 22:58N 37°56' E 023°38'0 0.0
2017-Nov-07 22:31N 37°56' E 023°38'2 3.8
2017-Nov-07 22:00N 37°57' E 023°35'2 4.7
2017-Nov-07 21:30N 37°55' E 023°37'0 0.6
2017-Nov-07 21:00N 37°55' E 023°37'2 3.5
2017-Nov-07 20:24N 37°57' E 023°36'2 4.2
2017-Nov-07 20:00N 37°56' E 023°38'0 0.1
2017-Nov-07 19:30N 37°56' E 023°38'0 0.0
2017-Nov-07 19:00N 37°56' E 023°38'0 0.0
2017-Nov-07 18:30N 37°56' E 023°38'1 2.2
2017-Nov-07 17:50N 37°57' E 023°36'0 1.0
2017-Nov-07 17:30N 37°57' E 023°36'0 0.7
2017-Nov-07 16:57N 37°57' E 023°35'1 1.7
2017-Nov-07 16:30N 37°57' E 023°36'1 1.8
2017-Nov-07 16:00N 37°56' E 023°37'0 0.4
2017-Nov-07 15:30N 37°56' E 023°37'0 0.7
2017-Nov-07 15:00N 37°56' E 023°37'1 1.1
2017-Nov-07 14:30N 37°56' E 023°38'0 0.0
2017-Nov-07 13:58N 37°56' E 023°38'1 2.6
2017-Nov-07 13:30N 37°56' E 023°36'1 1.4
2017-Nov-07 12:57N 37°57' E 023°36'1 2.9
2017-Nov-07 12:30N 37°56' E 023°37'0 0.5
2017-Nov-07 12:00N 37°56' E 023°37'1 1.6
2017-Nov-07 11:15N 37°57' E 023°36'  
Track history (hours):
 
Tides and Currents Weather Stations Pressure Air Temp Water Temp Dewpoint Dewpoint Depression Visibility Wind Speed Wind Dir Waves Ship Positions

Pilot Boat 53

Last reported at 2017-Nov-17 11:07 UTC. Time now 2017-Nov-19 05:00 UTC.
Position N 37°57' E 023°36'.

Length 14 m.

MMSI: 237710200.

Date/timePositionNaut miles runAvg speedWind from/ knotsBaromVisibWave heightAir tempDewpointWater temp
2017-Nov-17 11:07N 37°57' E 023°36'213.1
2017-Nov-17 11:00N 37°56' E 023°37'1 1.6
2017-Nov-17 10:30N 37°56' E 023°36'0 0.4
2017-Nov-17 10:00N 37°57' E 023°36'1 1.8
2017-Nov-17 09:28N 37°56' E 023°38'0 0.0
2017-Nov-17 09:00N 37°56' E 023°38'1 1.6
2017-Nov-17 08:30N 37°56' E 023°37'0 0.6
2017-Nov-17 08:00N 37°56' E 023°37'0 0.6
2017-Nov-17 07:30N 37°56' E 023°37'1 2.5
2017-Nov-17 07:00N 37°57' E 023°35'2 2.6
2017-Nov-17 06:20N 37°55' E 023°36'1 4.4
2017-Nov-17 06:00N 37°57' E 023°36'0 0.7
2017-Nov-17 05:25N 37°57' E 023°35'1 2.6
2017-Nov-17 05:00N 37°56' E 023°37'1 1.5
2017-Nov-17 04:30N 37°56' E 023°38'0 0.0
2017-Nov-17 04:00N 37°56' E 023°38'0 0.0
2017-Nov-17 03:30N 37°56' E 023°38'0 0.0
2017-Nov-17 03:00N 37°56' E 023°38'0 0.0
2017-Nov-17 02:30N 37°56' E 023°38'0 0.0
2017-Nov-17 02:00N 37°56' E 023°38'0 0.0
2017-Nov-17 01:30N 37°56' E 023°38'0 0.0
2017-Nov-17 01:00N 37°56' E 023°38'0 0.0
2017-Nov-17 00:30N 37°56' E 023°38'0 0.0
2017-Nov-17 00:00N 37°56' E 023°38'0 0.0
2017-Nov-16 23:30N 37°56' E 023°38'0 0.0
2017-Nov-16 23:00N 37°56' E 023°38'0 0.0
2017-Nov-16 22:30N 37°56' E 023°38'0 0.0
2017-Nov-16 22:00N 37°56' E 023°38'0 0.0
2017-Nov-16 21:30N 37°56' E 023°38'0 0.0
2017-Nov-16 21:00N 37°56' E 023°38'0 0.0
2017-Nov-16 20:30N 37°56' E 023°38'0 0.0
2017-Nov-16 20:00N 37°56' E 023°38'0 0.0
2017-Nov-16 19:30N 37°56' E 023°38'0 0.0
2017-Nov-16 19:00N 37°56' E 023°38'0 0.0
2017-Nov-16 18:30N 37°56' E 023°38'2 2.4
2017-Nov-16 17:44N 37°57' E 023°35'2 7.7
2017-Nov-16 17:29N 37°55' E 023°37'2 4.1
2017-Nov-16 16:57N 37°57' E 023°35'1 2.2
2017-Nov-16 16:30N 37°57' E 023°36'1 1.9
2017-Nov-16 16:00N 37°56' E 023°37'2 3.3
2017-Nov-16 15:20N 37°57' E 023°35'1 3.8
2017-Nov-16 15:00N 37°57' E 023°36'2 2.7
2017-Nov-16 14:24N 37°55' E 023°35'2 5.0
2017-Nov-16 14:00N 37°56' E 023°38'2 2.9
2017-Nov-16 13:25N 37°57' E 023°36'1 2.7
2017-Nov-16 13:00N 37°56' E 023°35'1 1.6
2017-Nov-16 12:30N 37°56' E 023°36'1 1.6
2017-Nov-16 12:00N 37°57' E 023°36'1 2.4
2017-Nov-16 11:30N 37°56' E 023°37'1 1.9
2017-Nov-16 10:55N 37°55' E 023°36'2 4.3
2017-Nov-16 10:30N 37°56' E 023°38'1 1.7
2017-Nov-16 09:40N 37°57' E 023°36'1 8.2
2017-Nov-16 09:29N 37°56' E 023°38'1 1.6
2017-Nov-16 09:00N 37°56' E 023°37'1 1.6
2017-Nov-16 08:29N 37°56' E 023°38'0 0.0
2017-Nov-16 07:53N 37°56' E 023°38'1 3.6
2017-Nov-16 07:30N 37°57' E 023°36'2 3.5
2017-Nov-16 06:58N 37°55' E 023°36'2 3.6
2017-Nov-16 06:30N 37°57' E 023°36'1 1.7
2017-Nov-16 06:00N 37°56' E 023°36'1 1.5
2017-Nov-16 05:30N 37°56' E 023°37'0 0.9
2017-Nov-16 05:00N 37°56' E 023°37'1 1.5
2017-Nov-16 04:30N 37°56' E 023°38'0 0.0
2017-Nov-16 03:58N 37°56' E 023°38'0 0.0
2017-Nov-16 03:28N 37°56' E 023°38'0 0.0
2017-Nov-16 02:58N 37°56' E 023°38'0 0.0
2017-Nov-16 02:28N 37°56' E 023°38'0 0.0
2017-Nov-16 01:55N 37°56' E 023°38'0 0.0
2017-Nov-16 01:28N 37°56' E 023°38'0 0.0
2017-Nov-16 00:58N 37°56' E 023°38'0 0.0
2017-Nov-16 00:25N 37°56' E 023°38'0 0.0
2017-Nov-15 23:58N 37°56' E 023°38'0 0.0
2017-Nov-15 23:28N 37°56' E 023°38'0 0.0
2017-Nov-15 22:58N 37°56' E 023°38'1 2.6
2017-Nov-15 22:24N 37°57' E 023°36'1 3.4
2017-Nov-15 22:00N 37°56' E 023°37'2 3.1
2017-Nov-15 21:27N 37°57' E 023°36'2 4.5
2017-Nov-15 21:00N 37°55' E 023°37'1 1.9
2017-Nov-15 20:29N 37°56' E 023°38'0 0.0
2017-Nov-15 19:59N 37°56' E 023°38'0 0.0
2017-Nov-15 19:29N 37°56' E 023°38'0 0.9
2017-Nov-15 19:00N 37°56' E 023°37'2 3.0
2017-Nov-15 18:27N 37°57' E 023°35'2 5.3
2017-Nov-15 18:00N 37°55' E 023°36'2 1.6
2017-Nov-15 16:59N 37°56' E 023°38'1 3.0
2017-Nov-15 16:30N 37°56' E 023°36'1 0.7
2017-Nov-15 14:30N 37°56' E 023°38'0 0.1
2017-Nov-15 14:00N 37°56' E 023°38'0 0.0
2017-Nov-15 13:30N 37°56' E 023°38'2 3.1
2017-Nov-15 13:00N 37°56' E 023°36'1 2.4
2017-Nov-15 12:30N 37°56' E 023°37'0 0.8
2017-Nov-15 11:56N 37°56' E 023°38'0 0.9
2017-Nov-15 11:30N 37°56' E 023°37'1 2.2
2017-Nov-15 11:00N 37°57' E 023°36'1 0.4
2017-Nov-15 09:41N 37°57' E 023°35'1 3.9
2017-Nov-15 09:30N 37°56' E 023°36'1 2.4
2017-Nov-15 09:00N 37°56' E 023°38'3 4.9
2017-Nov-15 08:29N 37°57' E 023°35'1 2.1
2017-Nov-15 08:00N 37°57' E 023°36'0 1.0
2017-Nov-15 07:30N 37°57' E 023°35'2 4.1
2017-Nov-15 07:00N 37°56' E 023°38'2 2.4
2017-Nov-15 06:21N 37°56' E 023°36'2 4.3
2017-Nov-15 06:00N 37°56' E 023°38'2 4.2
2017-Nov-15 05:29N 37°57' E 023°35'1 0.8
2017-Nov-15 04:42N 37°57' E 023°36'0 1.4
2017-Nov-15 04:30N 37°57' E 023°36'1 2.7
2017-Nov-15 03:58N 37°56' E 023°38'0 0.0
2017-Nov-15 03:28N 37°56' E 023°38'0 0.0
2017-Nov-15 02:58N 37°56' E 023°38'0 0.0
2017-Nov-15 02:28N 37°56' E 023°38'0 0.0
2017-Nov-15 01:59N 37°56' E 023°38'0 0.0
2017-Nov-15 01:29N 37°56' E 023°38'0 0.0
2017-Nov-15 00:59N 37°56' E 023°38'0 0.0
2017-Nov-15 00:30N 37°56' E 023°38'2 2.5
2017-Nov-14 23:54N 37°57' E 023°36'0 1.0
2017-Nov-14 23:30N 37°57' E 023°36'0 0.7
2017-Nov-14 22:57N 37°57' E 023°36'0 0.4
2017-Nov-14 22:30N 37°57' E 023°36'1 2.0
2017-Nov-14 22:00N 37°56' E 023°37'1 1.0
2017-Nov-14 21:29N 37°56' E 023°38'1 2.8
2017-Nov-14 20:57N 37°57' E 023°36'0 0.9
2017-Nov-14 20:30N 37°57' E 023°36'1 1.1
2017-Nov-14 19:54N 37°57' E 023°35'2 5.4
2017-Nov-14 19:29N 37°56' E 023°38'1 1.7
2017-Nov-14 18:59N 37°57' E 023°37'1 0.9
2017-Nov-14 18:07N 37°57' E 023°36'2 4.9
2017-Nov-14 17:48N 37°56' E 023°35'1 4.4
2017-Nov-14 17:31N 37°57' E 023°36'1 1.4
2017-Nov-14 17:00N 37°57' E 023°35'2 3.5
2017-Nov-14 16:28N 37°56' E 023°38'1 1.9
2017-Nov-14 16:00N 37°56' E 023°36'1 0.8
2017-Nov-14 15:14N 37°57' E 023°36'1 5.5
2017-Nov-14 14:58N 37°56' E 023°38'0 0.8
2017-Nov-14 14:30N 37°56' E 023°37'1 1.7
2017-Nov-14 13:44N 37°57' E 023°36'2 6.4
2017-Nov-14 13:30N 37°56' E 023°38'2 2.9
2017-Nov-14 12:58N 37°57' E 023°36'0 0.3
2017-Nov-14 12:29N 37°57' E 023°36'1 2.4
2017-Nov-14 12:00N 37°56' E 023°37'0 0.6
2017-Nov-14 11:28N 37°56' E 023°38'2 2.8
2017-Nov-14 10:51N 37°57' E 023°36'2 4.9
2017-Nov-14 10:30N 37°56' E 023°38'1 3.0
2017-Nov-14 10:00N 37°57' E 023°36'1 2.8
2017-Nov-14 09:28N 37°56' E 023°38'1 1.6
2017-Nov-14 09:00N 37°56' E 023°37'1 1.5
2017-Nov-14 08:29N 37°56' E 023°38'0 0.0
2017-Nov-14 07:59N 37°56' E 023°38'1 3.1
2017-Nov-14 07:30N 37°56' E 023°36'1 1.4
2017-Nov-14 06:56N 37°55' E 023°36'2 3.8
2017-Nov-14 06:27N 37°57' E 023°36'1 2.9
2017-Nov-14 06:00N 37°56' E 023°37'1 2.0
2017-Nov-14 05:30N 37°55' E 023°36'1 2.3
2017-Nov-14 05:00N 37°56' E 023°37'0 0.4
2017-Nov-14 04:29N 37°56' E 023°38'0 0.1
2017-Nov-14 03:59N 37°56' E 023°38'0 0.0
2017-Nov-14 03:29N 37°56' E 023°38'0 0.0
2017-Nov-14 02:59N 37°56' E 023°38'0 0.0
2017-Nov-14 02:29N 37°56' E 023°38'0 0.0
2017-Nov-14 01:56N 37°56' E 023°38'0 0.0
2017-Nov-14 01:26N 37°56' E 023°38'2 3.8
2017-Nov-14 00:51N 37°57' E 023°35'2 5.2
2017-Nov-14 00:26N 37°56' E 023°38'0 0.0
2017-Nov-13 23:59N 37°56' E 023°38'0 0.0
2017-Nov-13 23:29N 37°56' E 023°38'0 0.0
2017-Nov-13 22:59N 37°56' E 023°38'0 0.4
2017-Nov-13 22:30N 37°56' E 023°37'0 0.3
2017-Nov-13 22:00N 37°56' E 023°38'0 0.0
2017-Nov-13 01:58N 37°56' E 023°38'0 0.0
2017-Nov-13 01:28N 37°56' E 023°38'0 0.0
2017-Nov-13 00:58N 37°56' E 023°38'0 0.0
2017-Nov-13 00:28N 37°56' E 023°38'0 0.0
2017-Nov-12 23:58N 37°56' E 023°38'0 0.0
2017-Nov-12 23:28N 37°56' E 023°38'0 0.0
2017-Nov-12 22:58N 37°56' E 023°38'0 0.0
2017-Nov-12 22:28N 37°56' E 023°38'0 0.0
2017-Nov-12 21:58N 37°56' E 023°38'2 3.3
2017-Nov-12 21:19N 37°57' E 023°35'0 0.4
2017-Nov-12 20:21N 37°57' E 023°35'2 5.3
2017-Nov-12 19:58N 37°56' E 023°38'0 0.0
2017-Nov-12 19:28N 37°56' E 023°38'0 0.0
2017-Nov-12 18:58N 37°56' E 023°38'0 0.0
2017-Nov-12 18:28N 37°56' E 023°38'0 0.0
2017-Nov-12 17:58N 37°56' E 023°38'2 3.6
2017-Nov-12 17:30N 37°57' E 023°36'2 3.3
2017-Nov-12 17:00N 37°56' E 023°38'0 0.0
2017-Nov-12 16:30N 37°56' E 023°38'0 0.0
2017-Nov-12 15:59N 37°56' E 023°38'0 0.0
2017-Nov-12 15:29N 37°56' E 023°38'0 0.0
2017-Nov-12 14:59N 37°56' E 023°38'0 0.0
2017-Nov-12 14:28N 37°56' E 023°38'0 0.0
2017-Nov-12 13:59N 37°56' E 023°38'0 0.0
2017-Nov-12 13:29N 37°56' E 023°38'1 1.1
2017-Nov-12 13:01N 37°56' E 023°37'0 0.9
2017-Nov-12 12:31N 37°57' E 023°36'1 2.7
2017-Nov-12 11:59N 37°55' E 023°36'2 3.1
2017-Nov-12 11:28N 37°57' E 023°36'1 3.2
2017-Nov-12 11:00N 37°56' E 023°38'0 0.0
2017-Nov-12 10:30N 37°56' E 023°38'0 0.1
2017-Nov-12 10:00N 37°56' E 023°38'0 0.2
2017-Nov-12 09:27N 37°56' E 023°38'1 3.3
2017-Nov-12 09:00N 37°57' E 023°36'1 2.6
2017-Nov-12 08:30N 37°56' E 023°37'1 2.3
2017-Nov-12 07:59N 37°57' E 023°36'0 0.8
2017-Nov-12 07:26N 37°57' E 023°36'1 1.6
2017-Nov-12 07:00N 37°56' E 023°36'1 1.1
2017-Nov-12 06:30N 37°57' E 023°36'0 0.2
2017-Nov-12 05:52N 37°57' E 023°36'0 0.6
2017-Nov-12 05:29N 37°57' E 023°36'2 3.5
2017-Nov-12 04:57N 37°55' E 023°36'2 4.3
2017-Nov-12 04:30N 37°57' E 023°36'1 2.2
2017-Nov-12 03:56N 37°56' E 023°38'0 0.0
2017-Nov-12 03:29N 37°56' E 023°38'0 0.0
2017-Nov-12 02:59N 37°56' E 023°38'0 0.0
2017-Nov-12 02:29N 37°56' E 023°38'0 0.0
2017-Nov-12 01:59N 37°56' E 023°38'0 0.0
2017-Nov-12 01:29N 37°56' E 023°38'0 0.0
2017-Nov-12 00:59N 37°56' E 023°38'0 0.0
2017-Nov-12 00:29N 37°56' E 023°38'0 0.0
2017-Nov-11 23:59N 37°56' E 023°38'0 0.0
2017-Nov-11 23:29N 37°56' E 023°38'0 0.0
2017-Nov-11 22:59N 37°56' E 023°38'0 0.0
2017-Nov-11 22:29N 37°56' E 023°38'2 4.0
2017-Nov-11 22:00N 37°57' E 023°35'2 3.6
2017-Nov-11 21:30N 37°56' E 023°37'2 4.3
2017-Nov-11 20:59N 37°55' E 023°35'2 4.2
2017-Nov-11 20:27N 37°57' E 023°36'0 0.2
2017-Nov-11 20:00N 37°57' E 023°36'1 2.9
2017-Nov-11 19:30N 37°56' E 023°37'1 1.6
2017-Nov-11 18:58N 37°56' E 023°38'0 0.0
2017-Nov-11 18:29N 37°56' E 023°38'0 0.0
2017-Nov-11 17:56N 37°56' E 023°38'0 0.0
2017-Nov-11 17:29N 37°56' E 023°38'2 3.2
2017-Nov-11 16:59N 37°57' E 023°36'2 2.7
2017-Nov-11 16:24N 37°56' E 023°38'2 4.8
2017-Nov-11 16:00N 37°57' E 023°35'0 0.2
2017-Nov-11 15:28N 37°57' E 023°35'2 4.0
2017-Nov-11 15:00N 37°56' E 023°37'1 2.1
2017-Nov-11 14:18N 37°55' E 023°36'2 5.6
2017-Nov-11 14:00N 37°56' E 023°38'0 0.0
2017-Nov-11 13:30N 37°56' E 023°38'1 2.2
2017-Nov-11 12:59N 37°57' E 023°36'1 2.4
2017-Nov-11 12:30N 37°56' E 023°38'1 2.8
2017-Nov-11 12:00N 37°57' E 023°36'0 0.9
2017-Nov-11 11:30N 37°57' E 023°36'1 2.3
2017-Nov-11 11:00N 37°56' E 023°37'1 1.8
2017-Nov-11 10:29N 37°56' E 023°38'1 1.8
2017-Nov-11 10:00N 37°56' E 023°37'1 1.1
2017-Nov-11 09:30N 37°56' E 023°37'0 0.9
2017-Nov-11 09:00N 37°56' E 023°38'0 0.0
2017-Nov-11 08:30N 37°56' E 023°38'0 0.0
2017-Nov-11 08:00N 37°56' E 023°38'1 1.6
2017-Nov-11 07:28N 37°57' E 023°37'1 1.1
2017-Nov-11 07:00N 37°57' E 023°36'1 2.7
2017-Nov-11 06:30N 37°56' E 023°38'1 1.9
2017-Nov-11 06:00N 37°56' E 023°37'1 1.8
2017-Nov-11 05:29N 37°56' E 023°38'1 2.8
2017-Nov-11 05:00N 37°56' E 023°36'1 1.7
2017-Nov-11 04:30N 37°57' E 023°36'1 1.7
2017-Nov-11 03:58N 37°56' E 023°38'0 0.0
2017-Nov-11 03:25N 37°56' E 023°38'0 0.0
2017-Nov-11 02:58N 37°56' E 023°38'0 0.0
2017-Nov-11 02:28N 37°56' E 023°38'0 0.0
2017-Nov-11 01:55N 37°56' E 023°38'0 0.0
2017-Nov-11 01:28N 37°56' E 023°38'0 0.0
2017-Nov-11 00:58N 37°56' E 023°38'0 0.0
2017-Nov-11 00:28N 37°56' E 023°38'0 0.0
2017-Nov-10 23:58N 37°56' E 023°38'1 2.9
2017-Nov-10 23:30N 37°57' E 023°36'1 2.0
2017-Nov-10 23:00N 37°56' E 023°37'1 1.6
2017-Nov-10 22:21N 37°56' E 023°36'1 2.9
2017-Nov-10 21:59N 37°57' E 023°36'0 0.9
2017-Nov-10 21:30N 37°56' E 023°36'1 2.2
2017-Nov-10 20:59N 37°57' E 023°35'2 3.8
2017-Nov-10 20:30N 37°56' E 023°37'1 1.8
2017-Nov-10 20:00N 37°56' E 023°38'1 3.0
2017-Nov-10 19:30N 37°57' E 023°36'1 2.8
2017-Nov-10 19:00N 37°56' E 023°38'1 1.1
2017-Nov-10 17:53N 37°57' E 023°36'1 3.3
2017-Nov-10 17:30N 37°56' E 023°38'0 0.0
2017-Nov-10 17:00N 37°56' E 023°38'1 1.7
2017-Nov-10 16:27N 37°57' E 023°37'1 1.2
2017-Nov-10 15:57N 37°57' E 023°36'1 2.0
2017-Nov-10 15:30N 37°57' E 023°37'1 1.4
2017-Nov-10 15:00N 37°56' E 023°38'0 0.0
2017-Nov-10 14:30N 37°56' E 023°38'0 0.0
2017-Nov-10 14:00N 37°56' E 023°38'1 1.6
2017-Nov-10 13:30N 37°56' E 023°37'1 1.6
2017-Nov-10 13:00N 37°56' E 023°38'0 0.0
2017-Nov-10 12:30N 37°56' E 023°38'0 0.1
2017-Nov-10 12:00N 37°56' E 023°37'0 0.4
2017-Nov-10 11:30N 37°56' E 023°38'1 2.8
2017-Nov-10 11:00N 37°57' E 023°36'1 1.4
2017-Nov-10 10:29N 37°57' E 023°37'1 1.5
2017-Nov-10 10:00N 37°56' E 023°38'1 1.6
2017-Nov-10 09:30N 37°56' E 023°37'0 0.6
2017-Nov-10 09:00N 37°57' E 023°37'1 1.6
2017-Nov-10 08:30N 37°56' E 023°38'1 1.7
2017-Nov-10 08:00N 37°57' E 023°37'1 1.7
2017-Nov-10 07:30N 37°56' E 023°38'0 0.3
2017-Nov-10 07:00N 37°56' E 023°37'0 0.4
2017-Nov-10 06:31N 37°56' E 023°38'2 3.2
2017-Nov-10 06:00N 37°57' E 023°36'1 1.4
2017-Nov-10 05:30N 37°57' E 023°35'2 3.1
2017-Nov-10 04:48N 37°55' E 023°35'2 8.1
2017-Nov-10 04:30N 37°56' E 023°38'0 0.0
2017-Nov-10 03:59N 37°56' E 023°38'0 0.0
2017-Nov-10 03:26N 37°56' E 023°38'0 0.0
2017-Nov-10 02:59N 37°56' E 023°38'0 0.0
2017-Nov-10 02:26N 37°56' E 023°38'0 0.0
2017-Nov-10 01:50N 37°56' E 023°38'0 0.0
2017-Nov-10 01:29N 37°56' E 023°38'0 0.0
2017-Nov-10 00:59N 37°56' E 023°38'1 1.2
2017-Nov-10 00:30N 37°56' E 023°37'1 1.1
2017-Nov-10 00:00N 37°56' E 023°38'0 0.0
2017-Nov-09 23:30N 37°56' E 023°38'0 0.0
2017-Nov-09 23:00N 37°56' E 023°38'0 0.0
2017-Nov-09 22:30N 37°56' E 023°38'1 2.7
2017-Nov-09 22:00N 37°57' E 023°36'1 2.6
2017-Nov-09 21:30N 37°55' E 023°36'1 2.4
2017-Nov-09 20:55N 37°56' E 023°38'0 0.0
2017-Nov-09 20:25N 37°56' E 023°38'2 3.0
2017-Nov-09 19:53N 37°57' E 023°36'1 3.3
2017-Nov-09 19:30N 37°56' E 023°37'1 2.2
2017-Nov-09 18:53N 37°57' E 023°36'2 4.5
2017-Nov-09 18:30N 37°56' E 023°37'2 2.7
2017-Nov-09 17:56N 37°57' E 023°36'0 0.6
2017-Nov-09 17:27N 37°57' E 023°36'0 0.3
2017-Nov-09 17:00N 37°57' E 023°36'0 0.2
2017-Nov-09 16:26N 37°57' E 023°36'2 4.2
2017-Nov-09 15:59N 37°55' E 023°36'1 1.4
2017-Nov-09 15:29N 37°56' E 023°36'1 2.6
2017-Nov-09 15:00N 37°56' E 023°38'0 0.5
2017-Nov-09 14:30N 37°56' E 023°38'0 0.0
2017-Nov-09 13:57N 37°56' E 023°38'2 3.5
2017-Nov-09 13:29N 37°57' E 023°36'1 1.5
2017-Nov-09 13:00N 37°56' E 023°36'0 0.4
2017-Nov-09 12:15N 37°56' E 023°36'1 3.1
2017-Nov-09 11:59N 37°56' E 023°37'1 1.3
2017-Nov-09 11:30N 37°56' E 023°38'2 2.1
2017-Nov-09 10:46N 37°57' E 023°36'2 5.5
2017-Nov-09 10:29N 37°56' E 023°38'0 0.0
2017-Nov-09 10:00N 37°56' E 023°38'1 2.2
2017-Nov-09 09:22N 37°55' E 023°36'2 5.0
2017-Nov-09 08:57N 37°57' E 023°35'0 0.8
2017-Nov-09 08:29N 37°57' E 023°35'2 4.9
2017-Nov-09 08:00N 37°56' E 023°38'2 2.4
2017-Nov-09 07:10N 37°57' E 023°35'1 3.2
2017-Nov-09 07:00N 37°57' E 023°36'1 2.5
2017-Nov-09 06:30N 37°56' E 023°35'2 3.1
2017-Nov-09 06:00N 37°57' E 023°36'2 3.9
2017-Nov-09 05:30N 37°56' E 023°37'1 2.2
2017-Nov-09 05:00N 37°56' E 023°36'1 1.2
2017-Nov-09 04:27N 37°57' E 023°36'1 2.6
2017-Nov-09 03:55N 37°56' E 023°38'0 0.0
2017-Nov-09 03:28N 37°56' E 023°38'0 0.0
2017-Nov-09 02:58N 37°56' E 023°38'0 0.0
2017-Nov-09 02:28N 37°56' E 023°38'0 0.0
2017-Nov-09 02:00N 37°56' E 023°38'2 4.6
2017-Nov-09 01:30N 37°57' E 023°35'2 4.4
2017-Nov-09 00:58N 37°56' E 023°38'0 0.0
2017-Nov-09 00:28N 37°56' E 023°38'0 0.0
2017-Nov-08 23:58N 37°56' E 023°38'0 0.0
2017-Nov-08 23:28N 37°56' E 023°38'0 0.0
2017-Nov-08 22:58N 37°56' E 023°38'0 0.0
2017-Nov-08 22:28N 37°56' E 023°38'0 0.0
2017-Nov-08 21:56N 37°56' E 023°38'2 3.6
2017-Nov-08 21:20N 37°57' E 023°35'1 0.5
2017-Nov-08 20:08N 37°57' E 023°36'111.6
2017-Nov-08 20:00N 37°56' E 023°37'0 0.2
2017-Nov-08 19:29N 37°56' E 023°38'1 2.3
2017-Nov-08 19:00N 37°57' E 023°36'0 0.2
2017-Nov-08 18:30N 37°57' E 023°36'1 1.9
2017-Nov-08 17:58N 37°56' E 023°38'0 0.0
2017-Nov-08 17:28N 37°56' E 023°38'2 3.7
2017-Nov-08 16:59N 37°57' E 023°36'2 3.5
2017-Nov-08 16:29N 37°56' E 023°38'0 0.0
2017-Nov-08 15:59N 37°56' E 023°38'1 1.9
2017-Nov-08 15:30N 37°56' E 023°37'1 1.8
2017-Nov-08 15:00N 37°56' E 023°38'1 1.2
2017-Nov-08 14:16N 37°56' E 023°37'1 3.0
2017-Nov-08 13:49N 37°57' E 023°36'2 4.2
2017-Nov-08 13:27N 37°56' E 023°38'1 2.6
2017-Nov-08 13:00N 37°56' E 023°36'1 2.0
2017-Nov-08 12:20N 37°57' E 023°36'0 0.1
2017-Nov-08 11:38N 37°57' E 023°36'2 8.1
2017-Nov-08 11:25N 37°55' E 023°37'2 3.9
2017-Nov-08 11:00N 37°57' E 023°36'1 1.6
2017-Nov-08 10:25N 37°56' E 023°36'1 3.2
2017-Nov-08 10:01N 37°56' E 023°38'2 3.7
2017-Nov-08 09:24N 37°55' E 023°35'2 4.1
2017-Nov-08 08:58N 37°57' E 023°35'2 3.9
2017-Nov-08 08:29N 37°56' E 023°38'2 3.3
2017-Nov-08 07:56N 37°55' E 023°36'2 3.9
2017-Nov-08 07:29N 37°56' E 023°38'0 0.0
2017-Nov-08 06:59N 37°56' E 023°38'1 2.9
2017-Nov-08 06:30N 37°57' E 023°36'2 2.1
2017-Nov-08 05:43N 37°55' E 023°35'2 9.1
2017-Nov-08 05:30N 37°57' E 023°36'2 3.7
2017-Nov-08 04:50N 37°55' E 023°36'2 5.0
2017-Nov-08 04:26N 37°56' E 023°38'0 0.0
2017-Nov-08 03:56N 37°56' E 023°38'0 0.0
2017-Nov-08 03:26N 37°56' E 023°38'0 0.0
2017-Nov-08 02:59N 37°56' E 023°38'0 0.0
2017-Nov-08 02:29N 37°56' E 023°38'0 0.0
2017-Nov-08 01:59N 37°56' E 023°38'0 0.0
2017-Nov-08 01:26N 37°56' E 023°38'0 0.0
2017-Nov-08 00:59N 37°56' E 023°38'0 0.0
2017-Nov-08 00:29N 37°56' E 023°38'0 0.9
2017-Nov-08 00:00N 37°56' E 023°37'0 0.8
2017-Nov-07 23:28N 37°56' E 023°38'0 0.0
2017-Nov-07 22:58N 37°56' E 023°38'0 0.0
2017-Nov-07 22:31N 37°56' E 023°38'2 3.8
2017-Nov-07 22:00N 37°57' E 023°35'2 4.7
2017-Nov-07 21:30N 37°55' E 023°37'0 0.6
2017-Nov-07 21:00N 37°55' E 023°37'2 3.5
2017-Nov-07 20:24N 37°57' E 023°36'2 4.2
2017-Nov-07 20:00N 37°56' E 023°38'0 0.1
2017-Nov-07 19:30N 37°56' E 023°38'0 0.0
2017-Nov-07 19:00N 37°56' E 023°38'0 0.0
2017-Nov-07 18:30N 37°56' E 023°38'1 2.2
2017-Nov-07 17:50N 37°57' E 023°36'0 1.0
2017-Nov-07 17:30N 37°57' E 023°36'0 0.7
2017-Nov-07 16:57N 37°57' E 023°35'1 1.7
2017-Nov-07 16:30N 37°57' E 023°36'1 1.8
2017-Nov-07 16:00N 37°56' E 023°37'0 0.4
2017-Nov-07 15:30N 37°56' E 023°37'0 0.7
2017-Nov-07 15:00N 37°56' E 023°37'1 1.1
2017-Nov-07 14:30N 37°56' E 023°38'0 0.0
2017-Nov-07 13:58N 37°56' E 023°38'1 2.6
2017-Nov-07 13:30N 37°56' E 023°36'1 1.4
2017-Nov-07 12:57N 37°57' E 023°36'1 2.9
2017-Nov-07 12:30N 37°56' E 023°37'0 0.5
2017-Nov-07 12:00N 37°56' E 023°37'1 1.6
2017-Nov-07 11:15N 37°57' E 023°36'  

Dump ship's entire track history